Time;durP1;ratioP1;P1;durP2;ratioP2;P2;SDS_P1;SDS_P2;PMS_P1;PMS_P2;Temp;Humidity;BMP_temperature;BMP_pressure;BME280_temperature;BME280_humidity;BME280_pressure;Samples;Min_cycle;Max_cycle;Signal;HPM_P1;HPM_P2
2023/03/06 00:01:50;;;;;;;1.77;0.77;;;4.00;99.90;;;;;;6201379;23;20016;-95
2023/03/06 00:04:16;;;;;;;1.88;1.00;;;3.80;99.90;;;;;;6200225;23;20001;-94
2023/03/06 00:06:43;;;;;;;1.73;1.00;;;3.50;99.90;;;;;;6173775;23;20051;-96
2023/03/06 00:09:09;;;;;;;1.70;1.08;;;3.20;99.90;;;;;;6198608;23;20060;-94
2023/03/06 00:11:36;;;;;;;3.83;1.20;;;4.40;99.90;;;;;;6198461;23;20020;-95
2023/03/06 00:14:02;;;;;;;2.53;1.17;;;3.50;99.90;;;;;;6198049;23;20016;-95
2023/03/06 00:16:28;;;;;;;3.22;0.95;;;3.20;99.90;;;;;;6148192;23;20013;-95
2023/03/06 00:18:54;;;;;;;3.28;1.15;;;3.20;99.90;;;;;;6198632;23;20021;-94
2023/03/06 00:21:20;;;;;;;3.20;1.10;;;4.00;99.90;;;;;;6198325;23;20021;-95
2023/03/06 00:23:46;;;;;;;2.65;1.20;;;4.00;99.90;;;;;;6175553;23;20047;-95
2023/03/06 00:26:12;;;;;;;3.60;1.02;;;3.50;99.90;;;;;;6174235;23;20024;-96
2023/03/06 00:28:38;;;;;;;2.83;0.98;;;3.50;99.90;;;;;;6173649;23;20070;-95
2023/03/06 00:31:04;;;;;;;1.13;0.93;;;;;;;;;;6173216;23;20021;-94
2023/03/06 00:33:30;;;;;;;2.58;0.90;;;3.30;99.90;;;;;;6222849;23;20017;-94
2023/03/06 00:35:56;;;;;;;1.45;1.00;;;3.80;99.90;;;;;;6196414;23;20013;-95
2023/03/06 00:38:22;;;;;;;2.85;1.25;;;3.20;99.90;;;;;;6197094;23;20017;-95
2023/03/06 00:40:48;;;;;;;2.92;1.30;;;3.50;99.90;;;;;;6149153;23;20021;-95
2023/03/06 00:43:14;;;;;;;2.15;0.88;;;3.90;99.90;;;;;;6198499;23;20521;-94
2023/03/06 00:45:40;;;;;;;2.22;1.25;;;1.60;99.90;;;;;;6198354;23;20016;-95
2023/03/06 00:48:06;;;;;;;1.42;0.70;;;3.30;99.90;;;;;;6197534;23;20032;-96
2023/03/06 00:50:34;;;;;;;2.35;0.90;;;3.20;99.90;;;;;;6196778;23;20055;-96
2023/03/06 00:53:01;;;;;;;1.60;1.15;;;3.30;99.90;;;;;;6197304;23;20051;-96
2023/03/06 00:55:29;;;;;;;2.78;1.02;;;3.70;99.90;;;;;;6195589;23;20091;-95
2023/03/06 00:57:55;;;;;;;1.65;0.93;;;3.70;99.90;;;;;;6145988;23;20014;-93
2023/03/06 01:00:27;;;;;;;2.35;0.98;;;3.30;99.90;;;;;;6196004;23;20073;-94
2023/03/06 01:02:54;;;;;;;2.55;1.00;;;3.50;99.90;;;;;;6170215;23;20099;-95
2023/03/06 01:05:20;;;;;;;2.22;1.10;;;3.20;99.90;;;;;;6145795;23;20056;-96
2023/03/06 01:07:46;;;;;;;2.38;0.95;;;3.30;99.90;;;;;;6168393;23;20086;-95
2023/03/06 01:10:12;;;;;;;4.20;1.08;;;3.70;99.90;;;;;;6193465;23;20013;-95
2023/03/06 01:12:38;;;;;;;1.52;1.08;;;3.70;99.90;;;;;;6170069;23;20047;-96
2023/03/06 01:15:06;;;;;;;4.25;1.15;;;3.20;99.90;;;;;;6144342;23;20020;-93
2023/03/06 01:17:32;;;;;;;3.88;1.10;;;3.30;99.90;;;;;;6193061;23;20474;-95
2023/03/06 01:19:58;;;;;;;1.42;1.00;;;3.00;99.90;;;;;;6143494;23;20016;-94
2023/03/06 01:22:24;;;;;;;1.45;0.93;;;3.40;99.90;;;;;;6168015;23;20051;-95
2023/03/06 01:24:50;;;;;;;2.35;1.00;;;3.60;99.90;;;;;;6168879;23;20044;-96
2023/03/06 01:27:17;;;;;;;1.52;1.13;;;3.40;99.90;;;;;;6144079;23;20189;-96
2023/03/06 01:29:42;;;;;;;1.35;0.93;;;3.80;99.90;;;;;;6168825;23;20023;-96
2023/03/06 01:32:08;;;;;;;1.63;1.00;;;3.10;99.90;;;;;;6169731;23;20048;-96
2023/03/06 01:34:34;;;;;;;3.63;1.38;;;3.60;99.90;;;;;;6193319;23;20016;-95
2023/03/06 01:37:01;;;;;;;2.33;1.00;;;2.80;99.90;;;;;;6193401;23;20017;-94
2023/03/06 01:39:27;;;;;;;3.13;1.02;;;3.60;99.90;;;;;;6192790;23;20056;-93
2023/03/06 01:41:54;;;;;;;1.45;0.90;;;3.80;99.90;;;;;;6191848;23;20074;-93
2023/03/06 01:44:20;;;;;;;1.92;1.00;;;3.10;99.90;;;;;;6191109;23;20016;-94
2023/03/06 01:46:45;;;;;;;1.80;1.08;;;3.30;99.90;;;;;;6168173;23;20051;-93
2023/03/06 01:49:36;;;;;;;2.83;1.00;;;3.00;99.90;;;;;;6192371;23;20020;-93
2023/03/06 01:52:10;;;;;;;2.45;1.25;;;3.40;99.90;;;;;;6191122;23;20044;-93
2023/03/06 01:54:55;;;;;;;1.98;1.05;;;3.20;99.90;;;;;;6191559;23;20039;-93
2023/03/06 01:57:25;;;;;;;4.85;1.00;;;3.10;99.90;;;;;;6191126;23;20115;-94
2023/03/06 01:59:58;;;;;;;2.60;1.10;;;3.30;99.90;;;;;;6191519;23;20024;-93
2023/03/06 02:02:23;;;;;;;1.27;0.93;;;2.40;99.90;;;;;;6191122;23;20023;-93
2023/03/06 02:04:50;;;;;;;1.17;1.00;;;2.20;99.90;;;;;;6167084;23;20037;-93
2023/03/06 02:07:19;;;;;;;1.73;1.17;;;2.20;99.90;;;;;;6143646;23;20029;-94
2023/03/06 02:09:45;;;;;;;2.40;1.00;;;2.60;99.90;;;;;;6192798;23;20100;-93
2023/03/06 02:12:15;;;;;;;2.40;1.77;;;2.30;99.90;;;;;;6191577;23;20382;-94
2023/03/06 02:14:42;;;;;;;2.70;1.10;;;2.40;99.90;;;;;;6192503;23;20020;-94
2023/03/06 02:17:10;;;;;;;2.42;1.10;;;2.60;99.90;;;;;;6167493;23;20013;-93
2023/03/06 02:20:05;;;;;;;2.00;1.10;;;2.50;99.90;;;;;;6192873;23;20441;-94
2023/03/06 02:22:49;;;;;;;3.10;1.40;;;2.20;99.90;;;;;;6147108;23;20017;-94
2023/03/06 02:25:24;;;;;;;1.48;1.20;;;2.30;99.90;;;;;;6192249;23;20031;-94
2023/03/06 02:27:49;;;;;;;1.60;1.10;;;2.50;99.90;;;;;;6193434;23;20292;-95
2023/03/06 02:30:16;;;;;;;1.92;1.20;;;0.50;99.90;;;;;;6192730;23;20072;-94
2023/03/06 02:32:42;;;;;;;1.42;1.10;;;3.00;99.90;;;;;;6168576;23;20012;-94
2023/03/06 02:35:17;;;;;;;1.10;1.00;;;3.70;99.90;;;;;;6168859;23;20022;-94
2023/03/06 02:37:47;;;;;;;1.10;1.00;;;2.40;99.90;;;;;;6193494;23;20044;-94
2023/03/06 02:40:14;;;;;;;1.25;0.93;;;2.70;99.90;;;;;;6168667;23;20031;-94
2023/03/06 02:42:49;;;;;;;2.70;1.30;;;3.20;99.90;;;;;;6193231;23;20028;-93
2023/03/06 02:45:22;;;;;;;2.38;1.45;;;2.40;99.90;;;;;;6193182;23;20441;-94
2023/03/06 02:47:48;;;;;;;2.58;1.05;;;2.50;99.90;;;;;;6192163;23;20012;-94
2023/03/06 02:50:14;;;;;;;1.92;1.08;;;3.30;99.90;;;;;;6143995;23;20076;-94
2023/03/06 02:52:39;;;;;;;2.83;1.25;;;3.50;99.90;;;;;;6193442;23;20020;-94
2023/03/06 02:55:06;;;;;;;1.45;1.13;;;2.50;99.90;;;;;;6169143;23;20052;-95
2023/03/06 02:57:32;;;;;;;1.98;1.40;;;3.20;99.90;;;;;;6219392;23;20031;-94
2023/03/06 02:59:57;;;;;;;2.75;1.33;;;2.80;99.90;;;;;;6193754;23;20013;-95
2023/03/06 03:02:23;;;;;;;2.20;1.25;;;2.50;99.90;;;;;;6170724;23;20044;-94
2023/03/06 03:04:49;;;;;;;3.13;1.33;;;3.10;99.90;;;;;;6194822;23;20003;-95
2023/03/06 03:07:15;;;;;;;2.47;1.33;;;3.40;99.90;;;;;;6169596;23;20004;-95
2023/03/06 03:09:41;;;;;;;2.53;1.50;;;3.10;99.90;;;;;;6146382;23;20017;-94
2023/03/06 03:12:07;;;;;;;2.45;1.42;;;4.20;99.90;;;;;;6194194;23;20533;-93
2023/03/06 03:14:33;;;;;;;1.95;1.48;;;3.40;99.90;;;;;;6144895;23;20021;-95
2023/03/06 03:16:59;;;;;;;1.92;1.50;;;2.70;99.90;;;;;;6171243;23;20031;-95
2023/03/06 03:19:24;;;;;;;2.50;1.60;;;3.20;99.90;;;;;;6194857;23;20077;-94
2023/03/06 03:21:50;;;;;;;3.78;1.58;;;2.90;99.90;;;;;;6145792;23;20082;-95
2023/03/06 03:24:16;;;;;;;2.83;1.60;;;2.50;99.90;;;;;;6144907;23;20013;-94
2023/03/06 03:26:42;;;;;;;2.95;1.73;;;2.50;99.90;;;;;;6170051;23;20017;-96
2023/03/06 03:29:09;;;;;;;3.15;2.13;;;4.20;99.90;;;;;;6145352;23;20055;-94
2023/03/06 03:31:35;;;;;;;2.38;1.50;;;2.90;99.90;;;;;;6145429;23;20024;-95
2023/03/06 03:34:02;;;;;;;5.28;1.70;;;3.30;99.90;;;;;;6147062;23;20217;-94
2023/03/06 03:36:28;;;;;;;2.35;1.45;;;3.10;99.90;;;;;;6170922;23;20106;-95
2023/03/06 03:38:54;;;;;;;2.30;1.50;;;2.50;99.90;;;;;;6196685;23;20032;-95
2023/03/06 03:41:20;;;;;;;3.00;1.60;;;3.00;99.90;;;;;;6146808;23;20016;-95
2023/03/06 03:43:45;;;;;;;3.50;1.80;;;2.50;99.90;;;;;;6196199;23;20013;-94
2023/03/06 03:46:11;;;;;;;2.20;1.38;;;2.90;99.90;;;;;;6169905;23;20023;-95
2023/03/06 03:48:37;;;;;;;2.17;1.23;;;3.00;99.90;;;;;;6171056;23;20031;-96
2023/03/06 03:51:07;;;;;;;3.65;1.67;;;3.10;99.90;;;;;;6147188;23;20041;-95
2023/03/06 03:53:33;;;;;;;1.70;1.33;;;3.00;99.90;;;;;;6171937;23;20021;-96
2023/03/06 03:55:59;;;;;;;1.95;1.17;;;2.60;99.90;;;;;;6195503;23;20047;-94
2023/03/06 03:58:25;;;;;;;3.30;1.65;;;3.10;99.90;;;;;;6194166;23;20031;-94
2023/03/06 04:00:50;;;;;;;2.33;1.52;;;3.10;99.90;;;;;;6146592;23;20024;-94
2023/03/06 04:03:17;;;;;;;2.35;1.30;;;3.70;99.90;;;;;;6195882;23;20016;-95
2023/03/06 04:05:42;;;;;;;2.10;1.40;;;2.30;99.90;;;;;;6170471;23;20027;-94
2023/03/06 04:08:08;;;;;;;1.83;1.17;;;2.40;99.90;;;;;;6168448;23;20048;-95
2023/03/06 04:10:35;;;;;;;3.75;1.40;;;3.10;99.90;;;;;;6195965;23;20020;-94
2023/03/06 04:13:01;;;;;;;2.03;1.20;;;2.60;99.90;;;;;;6171171;23;20024;-95
2023/03/06 04:15:26;;;;;;;2.63;1.40;;;3.00;99.90;;;;;;6169846;23;20085;-95
2023/03/06 04:17:52;;;;;;;1.60;0.93;;;3.00;99.90;;;;;;6194858;23;20016;-94
2023/03/06 04:20:18;;;;;;;2.13;1.25;;;3.20;99.90;;;;;;6146414;23;20091;-93
2023/03/06 04:22:44;;;;;;;2.38;1.33;;;2.90;99.90;;;;;;6171012;23;20115;-94
2023/03/06 04:25:10;;;;;;;2.67;1.30;;;3.00;99.90;;;;;;6170234;23;20021;-94
2023/03/06 04:27:36;;;;;;;1.60;1.25;;;3.00;99.90;;;;;;6170586;23;20118;-93
2023/03/06 04:30:01;;;;;;;2.95;1.20;;;4.00;99.90;;;;;;6169570;23;20020;-93
2023/03/06 04:32:27;;;;;;;2.20;1.50;;;3.00;99.90;;;;;;6146091;23;20410;-93
2023/03/06 04:34:53;;;;;;;1.60;1.15;;;2.60;99.90;;;;;;6170352;23;20011;-94
2023/03/06 04:37:21;;;;;;;2.15;1.33;;;2.00;99.90;;;;;;6194404;23;20572;-93
2023/03/06 04:39:47;;;;;;;2.05;1.20;;;2.40;99.90;;;;;;6193049;23;20013;-93
2023/03/06 04:42:14;;;;;;;1.77;1.08;;;2.10;99.90;;;;;;6218050;23;20051;-93
2023/03/06 04:44:40;;;;;;;3.65;1.45;;;2.50;99.90;;;;;;6145803;23;20174;-94
2023/03/06 04:47:06;;;;;;;2.05;1.30;;;2.40;99.90;;;;;;6193941;23;20107;-94
2023/03/06 04:49:32;;;;;;;1.98;1.35;;;2.60;99.90;;;;;;6168677;23;20020;-93
2023/03/06 04:51:58;;;;;;;4.35;1.38;;;2.90;99.90;;;;;;6144077;23;20027;-93
2023/03/06 04:54:23;;;;;;;2.35;1.20;;;2.90;99.90;;;;;;6169380;23;20023;-93
2023/03/06 04:56:50;;;;;;;2.78;1.20;;;2.50;99.90;;;;;;6194659;23;20021;-94
2023/03/06 04:59:16;;;;;;;2.20;1.30;;;2.90;99.90;;;;;;6192952;23;20028;-93
2023/03/06 05:01:42;;;;;;;2.08;1.25;;;2.30;99.90;;;;;;6143327;23;20020;-93
2023/03/06 05:04:08;;;;;;;2.13;1.23;;;2.20;99.90;;;;;;6169792;23;20442;-93
2023/03/06 05:06:34;;;;;;;2.33;1.30;;;2.90;99.90;;;;;;6144479;23;20021;-92
2023/03/06 05:08:59;;;;;;;2.03;1.38;;;2.70;99.90;;;;;;6142882;23;20493;-93
2023/03/06 05:11:26;;;;;;;6.13;1.90;;;2.20;99.90;;;;;;6145122;23;20017;-94
2023/03/06 05:13:52;;;;;;;2.70;1.40;;;2.20;99.90;;;;;;6169477;23;20055;-94
2023/03/06 05:16:18;;;;;;;3.83;1.60;;;2.60;99.90;;;;;;6145240;23;20004;-94
2023/03/06 05:18:44;;;;;;;3.92;1.67;;;2.30;99.90;;;;;;6169169;23;20012;-93
2023/03/06 05:21:10;;;;;;;3.22;1.55;;;3.90;99.90;;;;;;6169619;23;20020;-92
2023/03/06 05:23:37;;;;;;;5.30;1.70;;;2.40;99.90;;;;;;6191710;23;20020;-93
2023/03/06 05:26:11;;;;;;;5.05;1.45;;;2.50;99.90;;;;;;6168830;23;20017;-94
2023/03/06 05:28:38;;;;;;;1.77;1.23;;;3.30;99.90;;;;;;6193311;23;20021;-94
2023/03/06 05:31:04;;;;;;;2.88;1.52;;;2.50;99.90;;;;;;6193738;23;20039;-94
2023/03/06 05:33:35;;;;;;;3.60;1.40;;;3.10;99.90;;;;;;6144366;23;20016;-94
2023/03/06 05:36:01;;;;;;;4.80;1.40;;;2.50;99.90;;;;;;6145436;23;20027;-94
2023/03/06 05:38:27;;;;;;;2.00;1.20;;;3.00;99.90;;;;;;6194060;23;20104;-94
2023/03/06 05:40:53;;;;;;;6.78;2.00;;;2.90;99.90;;;;;;6194115;23;20040;-94
2023/03/06 05:43:19;;;;;;;2.25;1.25;;;2.70;99.90;;;;;;6145172;23;20096;-94
2023/03/06 05:45:49;;;;;;;2.95;1.20;;;3.10;99.90;;;;;;6195672;23;20017;-96
2023/03/06 05:48:15;;;;;;;4.55;1.55;;;2.50;99.90;;;;;;6144812;23;20000;-93
2023/03/06 05:50:41;;;;;;;3.95;1.42;;;2.70;99.90;;;;;;6193774;23;20021;-94
2023/03/06 05:53:06;;;;;;;4.40;1.52;;;2.30;99.90;;;;;;6193949;23;20386;-94
2023/03/06 05:55:32;;;;;;;3.80;1.73;;;3.00;99.90;;;;;;6168797;23;20017;-94
2023/03/06 05:57:58;;;;;;;3.75;2.17;;;2.70;99.90;;;;;;6169588;23;20023;-95
2023/03/06 06:00:24;;;;;;;4.25;2.42;;;2.90;99.90;;;;;;6169610;23;20020;-94
2023/03/06 06:02:50;;;;;;;4.32;2.45;;;2.90;99.90;;;;;;6195454;23;20062;-94
2023/03/06 06:05:16;;;;;;;5.38;2.50;;;2.70;99.90;;;;;;6169593;23;20009;-93
2023/03/06 06:07:42;;;;;;;4.90;2.25;;;2.30;99.90;;;;;;6145897;23;20021;-94
2023/03/06 06:10:10;;;;;;;6.68;2.58;;;4.20;99.90;;;;;;6144543;23;20028;-94
2023/03/06 06:12:35;;;;;;;7.72;2.80;;;2.20;99.90;;;;;;6167220;23;20119;-93
2023/03/06 06:15:01;;;;;;;6.43;3.58;;;3.50;99.90;;;;;;6142928;23;20020;-94
2023/03/06 06:17:27;;;;;;;10.82;4.05;;;2.70;99.90;;;;;;6193850;23;20005;-93
2023/03/06 06:19:53;;;;;;;10.60;4.78;;;2.20;99.90;;;;;;6191911;23;20020;-94
2023/03/06 06:22:19;;;;;;;9.48;3.58;;;2.90;99.90;;;;;;6193092;23;20665;-94
2023/03/06 06:24:45;;;;;;;7.38;3.10;;;2.00;99.90;;;;;;6192460;23;20021;-93
2023/03/06 06:27:11;;;;;;;6.65;3.28;;;2.40;99.90;;;;;;6143263;23;20039;-95
2023/03/06 06:29:37;;;;;;;4.82;2.50;;;3.60;99.90;;;;;;6167571;23;20024;-94
2023/03/06 06:32:03;;;;;;;10.00;3.00;;;2.10;99.90;;;;;;6192441;23;20019;-94
2023/03/06 06:34:30;;;;;;;5.43;2.72;;;2.00;99.90;;;;;;6192048;23;20020;-96
2023/03/06 06:36:56;;;;;;;5.90;2.67;;;2.00;99.90;;;;;;6195054;23;20016;-94
2023/03/06 06:39:33;;;;;;;4.53;2.78;;;4.30;99.90;;;;;;6171248;23;20074;-94
2023/03/06 06:42:00;;;;;;;3.60;2.67;;;2.50;99.90;;;;;;6147687;23;20024;-94
2023/03/06 06:44:27;;;;;;;5.38;2.60;;;2.00;99.90;;;;;;6173632;23;20016;-96
2023/03/06 06:46:53;;;;;;;3.97;2.22;;;2.70;99.90;;;;;;6201054;23;20020;-95
2023/03/06 06:49:19;;;;;;;4.60;2.10;;;2.40;99.90;;;;;;6173929;23;20742;-95
2023/03/06 06:51:45;;;;;;;7.03;2.63;;;2.60;99.90;;;;;;6172059;23;20011;-94
2023/03/06 06:54:11;;;;;;;4.85;2.15;;;2.20;99.90;;;;;;6176615;23;20035;-94
2023/03/06 06:56:38;;;;;;;5.78;2.35;;;2.10;99.90;;;;;;6229802;23;20016;-95
2023/03/06 06:59:04;;;;;;;10.30;2.80;;;2.40;99.90;;;;;;6178159;23;20095;-95
2023/03/06 07:01:31;;;;;;;4.78;3.13;;;3.30;99.90;;;;;;6197825;23;20076;-95
2023/03/06 07:03:57;;;;;;;8.63;3.92;;;2.90;99.90;;;;;;6198708;23;20461;-94
2023/03/06 07:06:23;;;;;;;7.68;3.70;;;3.20;99.90;;;;;;6197761;23;20024;-96
2023/03/06 07:08:50;;;;;;;7.07;3.78;;;2.50;99.90;;;;;;6197870;23;20103;-96
2023/03/06 07:11:17;;;;;;;8.55;5.25;;;2.80;99.90;;;;;;6198172;23;20017;-96
2023/03/06 07:13:44;;;;;;;8.38;5.03;;;3.30;99.90;;;;;;6197136;23;20021;-96
2023/03/06 07:16:16;;;;;;;6.07;4.18;;;3.00;99.90;;;;;;6197537;23;20021;-96
2023/03/06 07:18:43;;;;;;;5.53;3.63;;;3.10;99.90;;;;;;6173116;23;20008;-96
2023/03/06 07:21:10;;;;;;;6.03;3.42;;;3.50;99.90;;;;;;6200467;23;20017;-96
2023/03/06 07:23:36;;;;;;;4.70;2.70;;;3.00;99.90;;;;;;6199479;23;20016;-96
2023/03/06 07:26:06;;;;;;;5.32;2.55;;;3.10;99.90;;;;;;6202391;23;20055;-96
2023/03/06 07:28:32;;;;;;;6.32;2.20;;;4.50;99.90;;;;;;6203146;23;20016;-96
2023/03/06 07:31:06;;;;;;;3.58;2.42;;;3.60;99.90;;;;;;6178286;23;20025;-96
2023/03/06 07:33:32;;;;;;;3.10;2.50;;;3.40;99.90;;;;;;6202777;23;20020;-96
2023/03/06 07:35:59;;;;;;;4.97;2.20;;;3.80;99.90;;;;;;6199258;23;20017;-96
2023/03/06 07:38:25;;;;;;;3.50;2.10;;;3.40;99.90;;;;;;6197457;23;20035;-96
2023/03/06 07:40:51;;;;;;;3.00;2.10;;;3.70;99.90;;;;;;6197067;23;20009;-96
2023/03/06 07:43:18;;;;;;;2.55;2.10;;;4.20;99.90;;;;;;6197608;23;20011;-96
2023/03/06 07:45:45;;;;;;;4.75;2.30;;;4.00;99.90;;;;;;6197861;23;20056;-96
2023/03/06 07:48:13;;;;;;;3.45;1.92;;;5.00;99.90;;;;;;6171413;23;20159;-96
2023/03/06 07:50:40;;;;;;;3.42;1.70;;;4.60;99.90;;;;;;6196836;23;20012;-95
2023/03/06 07:53:14;;;;;;;2.10;1.50;;;4.90;99.90;;;;;;6222616;23;20091;-96
2023/03/06 07:55:43;;;;;;;3.67;1.95;;;5.00;99.90;;;;;;6172601;23;20020;-95
2023/03/06 07:58:09;;;;;;;3.17;2.00;;;4.20;99.90;;;;;;6149805;23;20091;-96
2023/03/06 08:00:35;;;;;;;3.80;2.17;;;4.60;99.90;;;;;;6174476;23;20415;-95
2023/03/06 08:03:01;;;;;;;3.47;2.72;;;4.20;99.90;;;;;;6172810;23;20021;-96
2023/03/06 08:05:27;;;;;;;5.53;2.45;;;4.20;99.90;;;;;;6173208;23;20028;-96
2023/03/06 08:07:53;;;;;;;5.78;3.45;;;4.10;99.90;;;;;;6173931;23;20495;-96
2023/03/06 08:10:19;;;;;;;4.90;3.75;;;4.20;99.90;;;;;;6198459;23;20005;-96
2023/03/06 08:12:45;;;;;;;8.05;5.13;;;4.30;99.90;;;;;;6183283;23;20055;-73
2023/03/06 08:15:11;;;;;;;6.00;4.38;;;5.50;99.90;;;;;;6169942;23;20238;-73
2023/03/06 08:17:37;;;;;;;3.90;3.25;;;4.70;99.90;;;;;;6194330;23;20009;-75
2023/03/06 08:20:04;;;;;;;5.22;3.63;;;4.90;99.90;;;;;;6171748;23;20319;-75
2023/03/06 08:22:30;;;;;;;5.13;3.60;;;5.00;99.90;;;;;;6196480;23;20068;-75
2023/03/06 08:24:56;;;;;;;3.63;3.20;;;5.10;99.90;;;;;;6170777;23;20108;-73
2023/03/06 08:27:22;;;;;;;3.33;2.70;;;5.20;99.90;;;;;;6193728;23;20207;-73
2023/03/06 08:29:48;;;;;;;3.53;1.95;;;6.30;99.90;;;;;;6144995;23;20016;-74
2023/03/06 08:32:14;;;;;;;3.88;2.35;;;6.30;99.90;;;;;;6194257;23;20231;-73
2023/03/06 08:34:41;;;;;;;2.80;1.83;;;5.30;99.90;;;;;;6169083;23;20019;-74
2023/03/06 08:37:07;;;;;;;4.22;2.30;;;6.50;99.90;;;;;;6169816;23;20054;-76
2023/03/06 08:39:32;;;;;;;3.63;1.73;;;5.60;99.90;;;;;;6169320;23;20012;-75
2023/03/06 08:41:58;;;;;;;2.13;1.40;;;5.80;99.90;;;;;;6144772;23;20008;-75
2023/03/06 08:44:24;;;;;;;3.78;1.35;;;6.50;99.90;;;;;;6194614;23;20008;-75
2023/03/06 08:46:49;;;;;;;3.63;1.60;;;5.90;99.90;;;;;;6193511;23;20046;-75
2023/03/06 08:49:15;;;;;;;3.50;1.55;;;5.90;99.90;;;;;;6194233;23;20024;-75
2023/03/06 08:51:41;;;;;;;1.67;1.42;;;5.80;99.90;;;;;;6143083;23;20009;-75
2023/03/06 08:54:09;;;;;;;2.15;1.40;;;6.10;99.90;;;;;;6170730;23;20021;-76
2023/03/06 08:56:35;;;;;;;2.80;1.48;;;6.90;99.90;;;;;;6170592;23;20009;-74
2023/03/06 08:59:03;;;;;;;2.75;1.75;;;6.90;99.90;;;;;;6195076;23;20008;-74
2023/03/06 09:01:32;;;;;;;2.78;1.80;;;6.80;99.90;;;;;;6168680;23;20009;-76
2023/03/06 09:04:00;;;;;;;3.58;1.83;;;7.40;99.90;;;;;;6194700;23;20019;-75
2023/03/06 09:06:30;;;;;;;3.10;1.60;;;6.50;99.90;;;;;;6169510;23;20109;-76
2023/03/06 09:08:55;;;;;;;2.97;1.90;;;7.10;99.90;;;;;;6170901;23;20075;-73
2023/03/06 09:11:23;;;;;;;2.95;2.00;;;6.30;99.90;;;;;;6195102;23;20020;-74
2023/03/06 09:13:49;;;;;;;2.97;1.60;;;7.20;99.90;;;;;;6170528;23;20711;-74
2023/03/06 09:16:15;;;;;;;3.45;1.60;;;7.10;99.90;;;;;;6170656;23;20001;-75
2023/03/06 09:18:41;;;;;;;2.10;1.40;;;7.50;99.90;;;;;;6195292;23;20162;-74
2023/03/06 09:21:08;;;;;;;2.83;1.52;;;7.00;99.90;;;;;;6170429;23;20017;-74
2023/03/06 09:23:34;;;;;;;5.13;1.67;;;7.10;99.90;;;;;;6169986;23;20027;-74
2023/03/06 09:26:00;;;;;;;3.55;1.30;;;7.40;99.90;;;;;;6195515;23;20019;-74
2023/03/06 09:28:26;;;;;;;1.90;1.30;;;7.40;99.90;;;;;;6219907;23;20019;-75
2023/03/06 09:30:53;;;;;;;2.28;1.50;;;7.60;99.90;;;;;;6170132;23;20012;-76
2023/03/06 09:33:19;;;;;;;1.55;1.20;;;8.10;99.90;;;;;;6195049;23;20027;-75
2023/03/06 09:35:51;;;;;;;2.30;1.52;;;8.00;99.90;;;;;;6145666;23;20079;-74
2023/03/06 09:38:18;;;;;;;2.20;1.10;;;8.00;99.90;;;;;;6170394;23;20051;-75
2023/03/06 09:40:56;;;;;;;5.15;1.85;;;8.10;99.90;;;;;;6194831;23;20009;-75
2023/03/06 09:43:47;;;;;;;2.65;1.00;;;8.10;99.90;;;;;;6194443;23;20012;-76
2023/03/06 09:46:27;;;;;;;1.73;1.05;;;7.40;99.90;;;;;;6195417;23;20008;-74
2023/03/06 09:49:09;;;;;;;2.00;1.13;;;7.50;99.90;;;;;;6195238;23;20067;-75
2023/03/06 09:52:02;;;;;;;2.47;1.20;;;7.50;99.90;;;;;;6193625;23;20015;-75
2023/03/06 09:54:50;;;;;;;1.73;0.90;;;8.10;99.90;;;;;;6168988;23;20026;-75
2023/03/06 09:57:36;;;;;;;1.38;0.80;;;7.10;99.90;;;;;;6169623;23;20350;-76
2023/03/06 10:00:13;;;;;;;3.17;1.10;;;7.50;99.90;;;;;;6193664;23;20252;-75
2023/03/06 10:02:48;;;;;;;2.85;0.98;;;7.40;99.90;;;;;;6219186;23;20020;-75
2023/03/06 10:05:24;;;;;;;2.35;0.80;;;7.80;99.90;;;;;;6194358;23;20013;-75
2023/03/06 10:08:00;;;;;;;3.42;0.93;;;8.00;99.90;;;;;;6170449;23;20028;-76
2023/03/06 10:10:41;;;;;;;3.30;0.90;;;8.10;99.90;;;;;;6196148;23;20012;-74
2023/03/06 10:13:22;;;;;;;2.30;0.90;;;8.20;99.90;;;;;;6171113;23;20012;-75
2023/03/06 10:15:49;;;;;;;3.67;0.95;;;8.50;99.90;;;;;;6170904;23;20055;-76
2023/03/06 10:18:15;;;;;;;2.08;0.80;;;8.30;99.90;;;;;;6147223;23;20009;-75
2023/03/06 10:21:02;;;;;;;3.58;0.70;;;8.20;99.90;;;;;;6146665;23;20008;-74
2023/03/06 10:23:39;;;;;;;2.33;0.85;;;8.60;99.90;;;;;;6196872;23;20040;-75
2023/03/06 10:26:18;;;;;;;2.08;0.93;;;8.80;99.90;;;;;;6197250;23;20012;-75
2023/03/06 10:29:09;;;;;;;5.05;0.90;;;8.90;99.90;;;;;;6171483;23;20013;-76
2023/03/06 10:31:39;;;;;;;1.73;0.63;;;8.80;99.90;;;;;;6197235;23;20016;-75
2023/03/06 10:34:19;;;;;;;1.95;0.80;;;8.60;99.90;;;;;;6172291;23;20012;-75
2023/03/06 10:36:45;;;;;;;2.10;0.82;;;9.00;99.90;;;;;;6171270;23;20014;-76
2023/03/06 10:39:20;;;;;;;5.30;0.93;;;9.00;99.90;;;;;;6196464;23;20008;-75
2023/03/06 10:41:47;;;;;;;4.28;0.70;;;8.70;99.90;;;;;;6196627;23;20009;-76
2023/03/06 10:44:13;;;;;;;3.05;1.15;;;9.20;99.90;;;;;;6171750;23;20051;-77
2023/03/06 10:46:42;;;;;;;3.10;1.00;;;9.10;99.90;;;;;;6171275;23;20071;-78
2023/03/06 10:49:31;;;;;;;2.65;0.70;;;8.80;99.90;;;;;;6196893;23;20016;-75
2023/03/06 10:52:09;;;;;;;3.25;0.80;;;8.30;99.90;;;;;;6171825;23;20004;-74
2023/03/06 10:54:41;;;;;;;2.13;0.70;;;8.30;99.90;;;;;;6172360;23;20008;-76
2023/03/06 10:57:29;;;;;;;1.67;0.98;;;8.60;99.90;;;;;;6171823;23;20016;-75
2023/03/06 10:59:57;;;;;;;5.38;0.80;;;8.30;99.90;;;;;;6171410;23;20059;-75
2023/03/06 11:02:36;;;;;;;2.13;0.70;;;8.00;99.90;;;;;;6172210;23;20020;-76
2023/03/06 11:05:03;;;;;;;2.97;0.60;;;7.50;99.90;;;;;;6196338;23;20059;-76
2023/03/06 11:07:33;;;;;;;2.78;0.70;;;7.50;99.90;;;;;;6196673;23;20027;-75
2023/03/06 11:10:19;;;;;;;1.58;0.57;;;7.40;99.90;;;;;;6170995;23;20028;-75
2023/03/06 11:12:59;;;;;;;0.93;0.50;;;7.60;99.90;;;;;;6195052;23;20048;-76
2023/03/06 11:15:27;;;;;;;2.67;1.20;;;7.20;99.90;;;;;;6196371;23;20347;-76
2023/03/06 11:17:58;;;;;;;9.52;4.40;;;7.50;99.90;;;;;;6195555;23;20034;-75
2023/03/06 11:20:42;;;;;;;6.90;2.53;;;7.60;99.90;;;;;;6194896;23;20066;-76
2023/03/06 11:23:38;;;;;;;2.37;1.47;;;8.00;99.90;;;;;;6195570;23;20315;-77
2023/03/06 11:26:16;;;;;;;1.13;0.82;;;8.00;99.90;;;;;;6171451;23;20426;-76
2023/03/06 11:29:00;;;;;;;3.70;0.90;;;8.10;99.90;;;;;;6195579;23;20021;-76
2023/03/06 11:31:35;;;;;;;1.35;0.65;;;7.90;99.90;;;;;;6171631;23;20048;-75
2023/03/06 11:34:08;;;;;;;0.68;0.50;;;7.50;99.90;;;;;;6195862;23;20020;-77
2023/03/06 11:37:09;;;;;;;1.55;0.60;;;7.30;99.90;;;;;;6196622;23;20306;-75
2023/03/06 11:40:10;;;;;;;2.10;0.63;;;7.30;99.90;;;;;;6147195;23;20442;-76
2023/03/06 11:43:04;;;;;;;1.48;0.60;;;7.20;99.90;;;;;;6122316;23;20283;-75
2023/03/06 11:45:42;;;;;;;1.70;0.60;;;7.40;99.90;;;;;;6196397;23;20013;-76
2023/03/06 11:48:20;;;;;;;1.85;0.80;;;7.60;99.90;;;;;;6171605;23;20013;-76
2023/03/06 11:51:01;;;;;;;5.53;1.40;;;7.50;99.90;;;;;;6195872;23;20012;-76
2023/03/06 11:53:38;;;;;;;1.48;0.68;;;7.50;99.90;;;;;;6172498;23;20056;-76
2023/03/06 11:56:08;;;;;;;3.33;0.70;;;7.30;99.90;;;;;;6171261;23;20016;-75
2023/03/06 11:58:52;;;;;;;3.03;1.13;;;7.20;99.90;;;;;;6196222;23;20009;-74
2023/03/06 12:01:23;;;;;;;3.20;0.65;;;7.30;99.90;;;;;;6196234;23;20027;-74
2023/03/06 12:04:12;;;;;;;2.90;0.70;;;7.70;99.90;;;;;;6195834;23;20071;-75
2023/03/06 12:07:19;;;;;;;2.33;0.80;;;7.80;99.90;;;;;;6171611;23;20255;-76
2023/03/06 12:10:29;;;;;;;1.90;0.65;;;7.80;99.90;;;;;;6169664;23;20028;-75
2023/03/06 12:13:04;;;;;;;0.80;0.50;;;7.80;99.90;;;;;;6099448;23;20025;-75
2023/03/06 12:16:07;;;;;;;1.77;0.80;;;7.40;99.90;;;;;;6159874;23;20017;-75
2023/03/06 12:18:38;;;;;;;2.92;0.88;;;8.10;99.90;;;;;;6188513;23;20008;-75
2023/03/06 12:21:52;;;;;;;2.47;0.70;;;8.30;99.90;;;;;;6170521;23;20008;-75
2023/03/06 12:24:54;;;;;;;1.52;0.70;;;8.70;99.90;;;;;;6129129;23;20020;-76
2023/03/06 12:27:28;;;;;;;1.52;0.80;;;8.50;99.90;;;;;;6146932;23;20060;-74
2023/03/06 12:30:13;;;;;;;3.17;0.80;;;8.20;99.90;;;;;;6195032;23;20199;-74
2023/03/06 12:32:57;;;;;;;3.08;0.60;;;8.10;99.90;;;;;;6195340;23;20131;-76
2023/03/06 12:35:44;;;;;;;2.70;0.82;;;8.10;99.90;;;;;;6170580;23;20008;-77
2023/03/06 12:38:32;;;;;;;1.27;0.70;;;8.00;99.90;;;;;;6195324;23;20067;-76
2023/03/06 12:41:30;;;;;;;1.55;0.93;;;7.90;99.90;;;;;;6219898;23;20116;-76
2023/03/06 12:44:05;;;;;;;7.72;1.17;;;7.90;99.90;;;;;;6195602;23;20012;-76
2023/03/06 12:47:11;;;;;;;4.15;1.20;;;8.10;99.90;;;;;;6195620;23;20021;-76
2023/03/06 12:49:42;;;;;;;3.45;1.35;;;8.50;99.90;;;;;;6104986;23;20037;-76
2023/03/06 12:52:16;;;;;;;2.42;0.90;;;8.30;99.90;;;;;;6104798;23;20018;-76
2023/03/06 12:54:42;;;;;;;2.67;1.00;;;8.10;99.90;;;;;;6145404;23;20019;-77
2023/03/06 12:57:12;;;;;;;1.33;0.77;;;8.10;99.90;;;;;;6195248;23;20740;-76
2023/03/06 12:59:46;;;;;;;3.80;0.80;;;8.20;99.90;;;;;;6195857;23;20012;-77
2023/03/06 13:02:12;;;;;;;;;;;8.00;99.90;;;;;;6195698;23;20039;-76
2023/03/06 13:05:11;;;;;;;3.03;1.10;;;8.00;99.90;;;;;;6170875;23;19923;-76
2023/03/06 13:07:49;;;;;;;2.95;0.90;;;7.60;99.90;;;;;;6195766;23;20019;-76
2023/03/06 13:10:26;;;;;;;1.63;0.80;;;7.50;99.90;;;;;;6195139;23;20013;-77
2023/03/06 13:13:22;;;;;;;1.17;0.90;;;7.50;99.90;;;;;;6173170;23;20025;-78
2023/03/06 13:16:19;;;;;;;2.25;0.77;;;7.40;99.90;;;;;;6194812;23;20020;-75